createdAt,value
2023-02-03T00:00:40.156Z,24.20
2023-02-03T00:03:08.522Z,22.80
2023-02-03T00:05:37.600Z,21.40
2023-02-03T00:08:06.153Z,24.10
2023-02-03T00:10:35.149Z,21.50
2023-02-03T00:13:03.444Z,23.80
2023-02-03T00:15:31.604Z,21.60
2023-02-03T00:17:59.973Z,22.30
2023-02-03T00:20:28.808Z,22.20
2023-02-03T00:23:06.768Z,20.30
2023-02-03T00:25:35.485Z,23.10
2023-02-03T00:28:04.309Z,21.20
2023-02-03T00:30:36.234Z,20.30
2023-02-03T00:33:04.997Z,21.60
2023-02-03T00:35:33.393Z,21.20
2023-02-03T00:38:01.993Z,20.20
2023-02-03T00:40:33.416Z,20.10
2023-02-03T00:43:02.545Z,22.00
2023-02-03T00:45:30.958Z,20.40
2023-02-03T00:47:59.485Z,19.70
2023-02-03T00:50:28.270Z,18.80
2023-02-03T00:52:57.715Z,20.10
2023-02-03T00:55:27.489Z,18.80
2023-02-03T00:57:55.826Z,22.00
2023-02-03T01:00:24.523Z,21.20
2023-02-03T05:00:11.105Z,24.40
2023-02-03T05:02:40.438Z,26.20
2023-02-03T05:05:08.629Z,24.60
2023-02-03T05:07:37.823Z,28.20
2023-02-03T05:10:06.844Z,24.20
2023-02-03T05:12:35.088Z,26.40
2023-02-03T05:15:03.670Z,28.10
2023-02-03T05:17:39.056Z,28.00
2023-02-03T05:20:08.813Z,29.30
2023-02-03T05:22:36.915Z,26.90
2023-02-03T05:25:06.066Z,26.90
2023-02-03T05:27:34.906Z,26.40
2023-02-03T05:30:03.683Z,27.00
2023-02-03T05:32:48.653Z,40.00
2023-02-03T05:35:17.356Z,35.50
2023-02-03T05:37:46.038Z,31.50
2023-02-03T05:40:33.248Z,32.30
2023-02-03T05:43:02.652Z,36.60
2023-02-03T05:45:31.797Z,27.50
2023-02-03T05:48:00.031Z,28.90
2023-02-03T05:50:33.541Z,34.50
2023-02-03T05:53:09.729Z,36.10
2023-02-03T05:55:38.204Z,36.60
2023-02-03T05:58:06.668Z,35.00
2023-02-03T06:00:39.247Z,38.40
2023-02-03T06:03:31.018Z,35.10
2023-02-03T06:06:01.012Z,33.50
2023-02-03T06:08:29.372Z,35.70
2023-02-03T06:10:59.722Z,35.30
2023-02-03T06:13:31.661Z,39.60
2023-02-03T06:15:59.958Z,34.30
2023-02-03T06:18:28.230Z,34.70
2023-02-03T06:20:56.358Z,33.40
2023-02-03T06:23:24.767Z,33.50
2023-02-03T06:25:53.268Z,33.80
2023-02-03T06:28:21.698Z,34.50
2023-02-03T06:30:55.725Z,34.00
2023-02-03T06:33:24.227Z,35.20
2023-02-03T06:35:54.143Z,37.40
2023-02-03T06:38:22.625Z,35.70
2023-02-03T06:40:51.008Z,29.70
2023-02-03T06:43:19.182Z,27.10
2023-02-03T06:45:47.765Z,25.40
2023-02-03T06:48:15.873Z,23.30
2023-02-03T06:50:47.537Z,21.30
2023-02-03T06:53:16.802Z,27.30
2023-02-03T06:55:45.194Z,23.40
2023-02-03T06:58:13.888Z,18.80
2023-02-03T07:00:41.998Z,15.00
2023-02-03T07:03:10.334Z,17.20
2023-02-03T07:06:04.025Z,16.20
2023-02-03T07:08:32.277Z,15.80
2023-02-03T07:11:00.626Z,15.60
2023-02-03T07:13:29.136Z,14.00
2023-02-03T07:15:57.269Z,12.50
2023-02-03T07:21:15.070Z,12.10
2023-02-03T07:23:43.554Z,12.40
2023-02-03T07:26:11.839Z,10.30
2023-02-03T07:28:40.413Z,11.00
2023-02-03T07:31:10.730Z,10.50
2023-02-03T07:33:39.736Z,7.60
2023-02-03T07:36:10.524Z,7.00
2023-02-03T07:38:39.876Z,7.30
2023-02-03T07:41:08.270Z,6.50
2023-02-03T07:43:37.052Z,5.60
2023-02-03T07:46:05.399Z,6.10
2023-02-03T07:48:36.343Z,6.00
2023-02-03T07:51:05.985Z,6.10
2023-02-03T07:53:34.482Z,7.20
2023-02-03T07:56:04.030Z,5.80
2023-02-03T07:58:32.437Z,5.90
2023-02-03T08:01:00.830Z,6.20
2023-02-03T08:03:29.213Z,5.30
2023-02-03T08:06:00.635Z,6.00
2023-02-03T08:08:28.942Z,5.80
2023-02-03T08:10:57.247Z,4.60
2023-02-03T08:13:25.600Z,4.00
2023-02-03T08:15:55.060Z,5.40
2023-02-03T08:18:23.788Z,4.40
2023-02-03T08:20:52.243Z,5.90
2023-02-03T08:23:20.613Z,5.40
2023-02-03T08:25:52.811Z,12.30
2023-02-03T08:28:21.174Z,6.20
2023-02-03T08:30:49.935Z,5.90
2023-02-03T08:33:41.629Z,8.10
2023-02-03T08:36:11.367Z,5.30
2023-02-03T08:38:40.472Z,4.90
2023-02-03T08:41:12.529Z,9.90
2023-02-03T08:43:44.509Z,6.50
2023-02-03T08:46:13.912Z,6.10
2023-02-03T08:48:43.269Z,6.80
2023-02-03T08:51:13.078Z,6.40
2023-02-03T08:53:41.262Z,5.50
2023-02-03T08:56:10.553Z,6.30
2023-02-03T08:58:39.347Z,6.60
2023-02-03T09:01:12.345Z,6.60
2023-02-03T09:03:40.709Z,9.00
2023-02-03T09:06:11.922Z,7.70
2023-02-03T09:08:40.544Z,9.80
2023-02-03T09:11:10.928Z,7.20
2023-02-03T09:13:39.938Z,8.10
2023-02-03T09:16:08.570Z,6.40
2023-02-03T09:18:36.934Z,9.70
2023-02-03T09:21:07.027Z,9.20
2023-02-03T09:23:35.959Z,11.60
2023-02-03T09:26:05.615Z,8.90
2023-02-03T09:31:07.833Z,12.20
2023-02-03T09:33:39.059Z,9.80
2023-02-03T09:36:08.257Z,10.10
2023-02-03T09:38:36.624Z,10.50
2023-02-03T09:41:11.689Z,11.60
2023-02-03T09:43:46.962Z,8.20
2023-02-03T09:46:18.252Z,9.60
2023-02-03T09:48:53.760Z,7.90
2023-02-03T09:51:30.294Z,9.20
2023-02-03T09:54:12.339Z,10.00
2023-02-03T09:56:40.728Z,11.20
2023-02-03T09:59:09.094Z,11.00
2023-02-03T10:01:42.780Z,10.40
2023-02-03T10:04:19.016Z,10.20
2023-02-03T10:06:47.170Z,10.30
2023-02-03T10:09:24.707Z,10.20
2023-02-03T10:12:07.965Z,10.90
2023-02-03T13:26:43.245Z,5.70
2023-02-03T13:29:17.545Z,4.30
2023-02-03T13:31:58.993Z,3.20
2023-02-03T13:34:38.617Z,4.50
2023-02-03T13:37:19.598Z,5.10
2023-02-03T13:39:50.645Z,3.50
2023-02-03T13:42:23.931Z,5.30
2023-02-03T13:44:58.252Z,5.60
2023-02-03T13:47:29.510Z,3.50
2023-02-03T13:50:06.699Z,5.10
2023-02-03T13:52:57.171Z,9.40
2023-02-03T13:55:30.589Z,5.30
2023-02-03T13:58:01.803Z,6.70
2023-02-03T14:00:45.678Z,5.70
2023-02-03T14:03:20.555Z,4.30
2023-02-03T14:05:54.221Z,7.70
2023-02-03T14:08:25.365Z,6.60
2023-02-03T14:11:35.017Z,7.10
2023-02-03T14:16:42.329Z,7.10
2023-02-03T14:19:12.358Z,6.30
2023-02-03T14:21:45.834Z,6.60
2023-02-03T14:24:14.333Z,6.30
2023-02-03T14:26:44.464Z,7.00
2023-02-03T14:29:25.015Z,7.70
2023-02-03T14:31:55.940Z,7.70
2023-02-03T14:34:35.212Z,8.20
2023-02-03T14:37:23.630Z,4.80
2023-02-03T14:40:16.403Z,5.40
2023-02-03T14:42:45.744Z,5.50
2023-02-03T14:45:32.087Z,6.70
2023-02-03T14:48:26.577Z,6.80
2023-02-03T14:51:26.101Z,7.60
2023-02-03T14:54:12.665Z,5.70
2023-02-03T14:57:39.451Z,3.90
2023-02-03T15:00:19.515Z,5.80
2023-02-03T15:03:19.968Z,5.10
2023-02-03T15:06:01.282Z,3.60
2023-02-03T15:08:53.195Z,4.90
2023-02-03T15:11:31.983Z,4.80
2023-02-03T15:14:18.949Z,4.50
2023-02-03T15:16:51.319Z,3.70
2023-02-03T15:19:22.747Z,4.90
2023-02-03T15:21:50.843Z,4.60
2023-02-03T15:24:22.288Z,5.10
2023-02-03T15:26:52.693Z,6.00
2023-02-03T15:29:28.784Z,5.10
2023-02-03T15:32:01.582Z,5.70
2023-02-03T15:34:31.415Z,5.00
2023-02-03T15:37:01.043Z,5.30
2023-02-03T15:39:46.515Z,5.20
2023-02-03T15:42:21.994Z,6.70
2023-02-03T15:44:58.838Z,7.10
2023-02-03T15:47:31.379Z,7.80
2023-02-03T15:50:06.360Z,8.20
2023-02-03T15:52:35.895Z,7.20
2023-02-03T15:55:12.958Z,9.50
2023-02-03T15:57:40.956Z,7.60
2023-02-03T16:00:26.570Z,7.40
2023-02-03T16:02:54.847Z,4.80
2023-02-03T16:05:32.032Z,10.80
2023-02-03T16:08:38.452Z,12.10
2023-02-03T16:13:52.741Z,10.30
2023-02-03T16:16:33.209Z,12.30
2023-02-03T16:19:17.610Z,9.30
2023-02-03T16:21:49.889Z,12.10
2023-02-03T16:24:47.662Z,11.50
2023-02-03T16:27:28.046Z,9.40
2023-02-03T16:30:27.352Z,8.30
2023-02-03T16:33:23.794Z,7.80
2023-02-03T16:36:10.934Z,8.10
2023-02-03T16:38:57.464Z,7.00
2023-02-03T16:41:44.430Z,5.70
2023-02-03T16:44:31.243Z,6.30
2023-02-03T16:47:18.303Z,5.70
2023-02-03T16:50:04.877Z,8.20
2023-02-03T16:52:33.762Z,5.70
2023-02-03T16:55:01.863Z,6.50
2023-02-03T16:57:30.319Z,7.90
2023-02-03T16:59:58.701Z,9.00
2023-02-03T17:02:26.965Z,8.20
2023-02-03T17:04:55.158Z,7.80
2023-02-03T17:07:23.531Z,7.40
2023-02-03T17:09:51.929Z,7.20
2023-02-03T17:12:20.090Z,7.30
2023-02-03T17:14:48.674Z,7.10
2023-02-03T17:17:17.060Z,6.50
2023-02-03T17:19:45.641Z,5.10
2023-02-03T17:22:14.229Z,8.00
2023-02-03T17:24:42.823Z,8.40
2023-02-03T17:27:11.055Z,6.60
2023-02-03T17:29:39.780Z,8.40
2023-02-03T17:32:08.446Z,13.10
2023-02-03T17:34:36.949Z,10.00
2023-02-03T17:37:05.243Z,11.40
2023-02-03T17:53:24.802Z,3.60
2023-02-03T17:55:52.894Z,3.20
2023-02-03T17:58:23.585Z,4.30
2023-02-03T18:00:51.847Z,3.80
2023-02-03T18:03:20.046Z,4.20
2023-02-03T18:05:52.067Z,4.60
2023-02-03T18:08:20.509Z,4.20
2023-02-03T18:10:52.537Z,5.30
2023-02-03T18:13:23.495Z,5.80
2023-02-03T18:15:52.285Z,6.00
2023-02-03T18:18:23.222Z,3.20
2023-02-03T18:20:52.474Z,5.50
2023-02-03T18:23:20.903Z,5.00
2023-02-03T18:25:53.477Z,4.90
2023-02-03T18:28:22.815Z,7.10
2023-02-03T18:30:51.093Z,5.50
2023-02-03T18:33:19.329Z,6.30
2023-02-03T18:35:47.825Z,6.30
2023-02-03T18:38:15.967Z,5.70
2023-02-03T18:40:44.171Z,5.00
2023-02-03T18:43:12.662Z,4.80
2023-02-03T18:45:41.050Z,5.60
2023-02-03T18:48:09.529Z,5.40
2023-02-03T18:50:43.236Z,6.20
2023-02-03T18:53:11.630Z,6.20
2023-02-03T18:55:43.421Z,7.00
2023-02-03T18:58:12.576Z,5.50
2023-02-03T19:00:41.786Z,4.70
2023-02-03T19:03:10.152Z,6.40
2023-02-03T19:05:41.412Z,7.70
2023-02-03T19:08:10.314Z,4.50
2023-02-03T19:10:38.441Z,5.30
2023-02-03T19:13:06.855Z,5.80
2023-02-03T19:15:35.220Z,5.20
2023-02-03T19:18:03.650Z,5.50
2023-02-03T19:20:31.944Z,6.20
2023-02-03T19:23:02.533Z,6.70
2023-02-03T19:25:31.268Z,4.60
2023-02-03T19:27:59.576Z,5.80
2023-02-03T19:30:28.405Z,5.40
2023-02-03T19:32:57.599Z,5.90
2023-02-03T19:35:26.077Z,6.10
2023-02-03T19:37:54.564Z,5.90
2023-02-03T19:40:22.622Z,6.00
2023-02-03T19:42:51.011Z,7.60
2023-02-03T19:45:19.330Z,7.50
2023-02-03T19:47:49.125Z,7.00
2023-02-03T19:50:17.279Z,6.20
2023-02-03T19:52:52.255Z,6.50
2023-02-03T19:55:30.667Z,7.00
2023-02-03T19:58:00.344Z,5.80
2023-02-03T20:00:28.755Z,5.40
2023-02-03T20:02:57.516Z,5.40
2023-02-03T20:05:26.030Z,3.50
2023-02-03T20:07:54.417Z,4.30
2023-02-03T20:10:22.499Z,5.10
2023-02-03T20:12:51.930Z,4.40
2023-02-03T20:15:20.380Z,5.80
2023-02-03T20:17:51.176Z,4.20
2023-02-03T20:20:20.825Z,4.80
2023-02-03T20:22:49.636Z,4.20
2023-02-03T20:25:19.401Z,4.50
2023-02-03T20:27:47.634Z,4.70
2023-02-03T20:30:16.047Z,5.20
2023-02-03T20:32:44.625Z,5.40
2023-02-03T20:35:12.776Z,4.90
2023-02-03T20:37:41.043Z,4.90
2023-02-03T20:40:19.106Z,4.40
2023-02-03T20:42:47.575Z,4.60
2023-02-03T20:45:16.088Z,7.70
2023-02-03T20:47:44.913Z,8.80
2023-02-03T20:50:17.178Z,8.00
2023-02-03T20:52:46.442Z,5.10
2023-02-03T20:55:19.662Z,6.30
2023-02-03T20:57:50.916Z,5.40
2023-02-03T21:00:21.386Z,6.10
2023-02-03T21:03:08.522Z,7.10
2023-02-03T21:05:42.275Z,5.60
2023-02-03T21:08:11.327Z,7.30
2023-02-03T21:10:41.049Z,4.60
2023-02-03T21:13:26.881Z,5.20
2023-02-03T21:15:57.007Z,5.40
2023-02-03T21:20:53.711Z,5.60
2023-02-03T21:23:24.455Z,7.40
2023-02-03T21:25:52.827Z,5.90
2023-02-03T21:28:35.212Z,6.00
2023-02-03T21:31:22.542Z,5.30
2023-02-03T21:33:51.568Z,5.30
2023-02-03T21:36:21.340Z,7.30
2023-02-03T21:41:20.394Z,9.10
2023-02-03T21:49:03.844Z,7.50
2023-02-03T21:51:36.650Z,10.50
2023-02-03T21:54:27.249Z,11.40
2023-02-03T21:56:56.026Z,8.20
2023-02-03T21:59:28.564Z,7.80
2023-02-03T22:01:58.654Z,8.00
2023-02-03T22:04:28.408Z,7.80
2023-02-03T22:06:56.730Z,8.10
2023-02-03T22:09:29.836Z,7.10
2023-02-03T22:12:20.778Z,7.20
2023-02-03T22:14:51.353Z,5.40
2023-02-03T22:17:19.630Z,7.40
2023-02-03T22:19:49.951Z,6.80
2023-02-03T22:22:18.132Z,6.80
2023-02-03T22:24:46.250Z,6.00
2023-02-03T22:27:14.449Z,7.00
2023-02-03T22:29:42.678Z,6.90
2023-02-03T22:32:10.935Z,7.40
2023-02-03T22:34:39.113Z,10.10
2023-02-03T22:37:07.304Z,8.90
2023-02-03T22:39:35.520Z,7.00
2023-02-03T22:42:04.062Z,6.90
2023-02-03T22:44:32.227Z,7.90
2023-02-03T22:47:00.353Z,6.00
2023-02-03T22:49:32.873Z,6.20
2023-02-03T22:52:01.661Z,5.40
2023-02-03T22:54:33.849Z,5.40
2023-02-03T22:57:02.943Z,5.40
2023-02-03T22:59:31.107Z,5.50
2023-02-03T23:01:59.802Z,6.20
2023-02-03T23:04:28.186Z,5.50
2023-02-03T23:06:56.357Z,5.10
2023-02-03T23:09:24.472Z,5.60
2023-02-03T23:11:53.838Z,5.80
2023-02-03T23:14:26.683Z,6.00
2023-02-03T23:16:55.246Z,6.70
2023-02-03T23:19:24.859Z,6.00
2023-02-03T23:21:52.958Z,5.30
2023-02-03T23:24:21.423Z,5.80
2023-02-03T23:26:49.625Z,5.70
2023-02-03T23:29:17.921Z,7.60
2023-02-03T23:31:46.236Z,7.10
2023-02-03T23:34:32.905Z,7.70
2023-02-03T23:37:01.614Z,7.60
2023-02-03T23:39:30.138Z,8.10
2023-02-03T23:41:58.411Z,7.90
2023-02-03T23:44:27.050Z,8.90
2023-02-03T23:46:55.592Z,9.10
2023-02-03T23:49:23.933Z,9.40
2023-02-03T23:51:52.053Z,9.90
2023-02-03T23:54:20.364Z,11.00
2023-02-03T23:56:49.057Z,12.40
2023-02-03T23:59:17.222Z,13.10
